Flight Track Log - Related Links

Times and Time Zones

All times are in EDT time to prevent confusion due to time zone crossing. See the SWA167 flight status page for this flight to view local times or setup timezone preferences in your user account.

Time Position Orientation Groundspeed Altitude Reporting Facility
EDT Latitude Longitude Course Direction KTS MPH feet Rate Location/Type
Mon 05:20:02 PM 32.8333 -96.8333 140° Southeast 180 207 1,500  Level Dallas / Fort Worth TRACON
Mon 05:20:50 PM 32.8000 -96.8000 140° Southeast 212 244 2,800 2,444 Climbing Dallas / Fort Worth TRACON
Mon 05:21:50 PM 32.7500 -96.7667 151° Southeast 219 252 5,900 3,113 Climbing Dallas / Fort Worth TRACON
Mon 05:23:30 PM 32.6547 -96.8606 220° Southwest 242 278 11,100 2,925 Climbing Fort Worth Center
Mon 05:24:30 PM 32.6342 -96.9422 253° West 276 318 13,700 2,250 Climbing Fort Worth Center
Mon 05:25:30 PM 32.5675 -97.0164 223° Southwest 310 357 15,600 2,300 Climbing Fort Worth Center
Mon 05:26:30 PM 32.4758 -97.0342 189° South 339 390 18,300 2,500 Climbing Fort Worth Center
Mon 05:27:30 PM 32.3631 -97.0692 195° South 376 433 20,600 2,250 Climbing Fort Worth Center
Mon 05:28:30 PM 32.2672 -97.0964 194° South 396 456 22,800 2,250 Climbing Fort Worth Center
Mon 05:29:30 PM 32.1419 -97.1361 195° South 409 471 25,100 2,050 Climbing Fort Worth Center
Mon 05:30:30 PM 32.0314 -97.1658 193° South 414 476 26,900 1,900 Climbing Fort Worth Center
Mon 05:31:30 PM 31.9147 -97.1981 193° South 414 476 28,900 1,816 Climbing Fort Worth Center
Mon 05:33:35 PM 31.6803 -97.2639 193° South 428 493 32,500 1,819 Climbing Houston Center
Mon 05:34:38 PM 31.5722 -97.3114 201° Southwest 409 471 34,600 1,680 Climbing Houston Center
Mon 05:35:40 PM 31.4686 -97.3606 202° Southwest 401 461 36,000 677 Climbing Houston Center
Mon 05:36:42 PM 31.3636 -97.4108 202° Southwest 402 463 36,000  Level Houston Center
Mon 05:37:44 PM 31.2297 -97.4264 186° South 418 481 36,000  Level Houston Center
Mon 05:38:46 PM 31.1139 -97.4269 180° South 415 478 36,000  Level Houston Center
Mon 05:39:48 PM 30.9986 -97.4275 180° South 415 478 36,000  Level Houston Center
Mon 05:40:50 PM 30.8833 -97.4286 180° South 418 481 36,000  Level Houston Center
Mon 05:41:52 PM 30.7681 -97.4292 180° South 415 478 36,000  Level Houston Center
Mon 05:42:54 PM 30.6347 -97.4294 180° South 410 472 36,000  Level Houston Center
Mon 05:43:57 PM 30.5453 -97.5019 215° Southwest 389 448 36,000  Level Houston Center
Mon 05:44:59 PM 30.4661 -97.5894 224° Southwest 386 444 36,000  Level Houston Center
Mon 05:46:01 PM 30.3864 -97.6750 223° Southwest 388 447 36,000  Level Houston Center
Mon 05:47:03 PM 30.3061 -97.7597 222° Southwest 386 444 36,000  Level Houston Center
Mon 05:48:05 PM 30.2272 -97.8458 223° Southwest 386 444 36,000  Level Houston Center
Mon 05:49:07 PM 30.1328 -97.9450 222° Southwest 388 447 36,000  Level Houston Center
Mon 05:50:09 PM 30.0528 -98.0297 223° Southwest 391 450 36,000  Level Houston Center
Mon 05:51:11 PM 29.9675 -98.1200 223° Southwest 389 448 36,000  Level Houston Center
Mon 05:52:14 PM 29.8881 -98.2047 223° Southwest 390 449 36,000  Level Houston Center
Mon 05:53:16 PM 29.8025 -98.2953 223° Southwest 390 449 36,000  Level Houston Center
Mon 05:54:18 PM 29.7233 -98.3786 222° Southwest 388 447 36,000  Level Houston Center
Mon 05:55:20 PM 29.6519 -98.4508 221° Southwest 385 443 36,000  Level Houston Center
Mon 05:56:22 PM 29.5603 -98.5239 215° Southwest 397 457 36,000  Level Houston Center
Mon 05:57:24 PM 29.4528 -98.6144 216° Southwest 390 449 36,000  Level Houston Center
Mon 05:58:26 PM 29.3656 -98.6875 216° Southwest 389 448 36,000  Level Houston Center
Mon 05:59:28 PM 29.2703 -98.7661 216° Southwest 391 450 36,000  Level Houston Center
Mon 06:00:30 PM 29.1719 -98.8233 207° Southwest 397 457 36,000  Level Houston Center
Mon 06:01:32 PM 29.0600 -98.8742 202° Southwest 403 464 36,000  Level Houston Center
Mon 06:02:34 PM 28.9544 -98.9150 199° South 400 460 36,000  Level Houston Center
Mon 06:03:36 PM 28.8306 -98.9303 186° South 413 475 36,000  Level Houston Center
Mon 06:04:38 PM 28.7156 -98.8933 164° South 431 496 36,000  Level Houston Center
Mon 06:05:40 PM 28.6094 -98.8394 156° South 444 511 36,000  Level Houston Center
Mon 06:06:42 PM 28.4975 -98.7817 156° South 442 509 36,000  Level Houston Center
Mon 06:07:44 PM 28.3836 -98.7256 157° South 444 511 36,000  Level Houston Center
Mon 06:08:46 PM 28.2697 -98.6706 157° South 444 511 36,000  Level Houston Center
Mon 06:09:48 PM 28.1325 -98.6044 157° South 445 512 36,000  Level Houston Center
Mon 06:10:50 PM 28.0178 -98.5483 157° South 447 514 36,000  Level Houston Center
Mon 06:11:52 PM 27.9025 -98.4931 157° South 447 514 36,000 -823 Level Houston Center
Mon 06:12:54 PM 27.7869 -98.4369 157° South 449 517 34,300 -2,323 Descending Houston Center
Mon 06:13:56 PM 27.6725 -98.3817 157° South 446 513 31,200 -2,710 Descending Houston Center
Mon 06:14:58 PM 27.5589 -98.3272 157° South 442 509 28,700 -2,419 Descending Houston Center
Mon 06:16:00 PM 27.4500 -98.2758 157° South 430 495 26,200 -2,565 Descending Houston Center
Mon 06:17:02 PM 27.3242 -98.2164 157° South 412 474 23,400 -2,538 Descending Houston Center
Mon 06:17:44 PM 27.2528 -98.1833 158° South 399 459 21,800 -2,226 Descending Houston Center
Mon 06:18:04 PM 27.2239 -98.1675 154° Southeast 399 459 21,100 -2,333 Descending Houston Center
Mon 06:18:20 PM 27.1972 -98.1553 158° South 392 451 20,400 -2,129 Descending Houston Center
Mon 06:19:06 PM 27.1256 -98.1217 157° South 386 444 18,900 -2,164 Descending Houston Center
Mon 06:19:21 PM 27.0931 -98.1053 156° South 376 433 18,200 -2,226 Descending Houston Center
Mon 06:20:08 PM 27.0314 -98.0767 158° South 370 426 16,600 -1,211 Descending Houston Center
Mon 06:21:10 PM 26.9411 -98.0350 158° South 352 405 16,000 -1,065 Descending Houston Center
Mon 06:22:12 PM 26.8425 -97.9811 154° Southeast 332 382 14,400 -1,984 Descending Houston Center
Mon 06:23:14 PM 26.7531 -97.9761 177° South 321 369 11,900 -2,371 Descending Houston Center
Mon 06:24:16 PM 26.6678 -97.9453 162° South 335 386 9,500 -1,887 Descending Houston Center
Mon 06:25:18 PM 26.5953 -97.8892 145° Southeast 290 334 8,000 -1,756 Descending Houston Center
Mon 06:26:19 PM 26.5319 -97.8392 145° Southeast 278 320 5,900 -2,049 Descending Houston Center
Mon 06:27:21 PM 26.4681 -97.7869 144° Southeast 265 305 3,800 -1,597 Descending Houston Center
Mon 06:28:23 PM 26.4083 -97.7403 145° Southeast 262 302 2,600 -871 Descending Houston Center
Mon 06:29:25 PM 26.3567 -97.6986 144° Southeast 244 281 2,000 -532 Descending Houston Center
Mon 06:30:27 PM 26.3128 -97.6636 144° Southeast 175 201 1,500 -610 Descending Houston Center
Mon 06:31:23 PM 26.2775 -97.6581 172° South 123 142 800 -677 Descending Houston Center
Mon 06:32:31 PM 26.2406 -97.6586 181° South 129 148 100 -618 Descending Houston Center
Mon 06:34:00 PM 26.2271 -97.6551 157° South  Level Estimated

Login

Don't have an account? Register now (free) for customized features, flight alerts, and more!